createdAt,value
2019-01-18T00:00:38.860Z,0
2019-01-18T00:01:48.113Z,0
2019-01-18T00:02:57.077Z,0
2019-01-18T00:04:06.810Z,0
2019-01-18T00:05:16.342Z,0
2019-01-18T00:06:26.110Z,0
2019-01-18T00:07:35.402Z,0
2019-01-18T00:08:44.446Z,0
2019-01-18T00:09:54.054Z,0
2019-01-18T00:11:03.059Z,0
2019-01-18T00:12:12.357Z,0
2019-01-18T00:13:21.686Z,0
2019-01-18T00:14:31.225Z,0
2019-01-18T00:15:40.455Z,0
2019-01-18T00:16:50.056Z,0
2019-01-18T00:17:58.794Z,0
2019-01-18T00:19:07.834Z,0
2019-01-18T00:20:17.099Z,0
2019-01-18T00:21:26.622Z,0
2019-01-18T00:22:35.399Z,0
2019-01-18T00:23:44.671Z,0
2019-01-18T00:24:53.904Z,0
2019-01-18T00:26:03.479Z,0
2019-01-18T00:27:12.482Z,0
2019-01-18T00:28:21.507Z,0
2019-01-18T00:29:36.470Z,0
2019-01-18T00:30:45.563Z,0
2019-01-18T00:31:54.608Z,0
2019-01-18T00:33:04.154Z,0
2019-01-18T00:34:13.466Z,0
2019-01-18T00:35:22.475Z,0
2019-01-18T00:36:31.501Z,0
2019-01-18T00:37:40.773Z,0
2019-01-18T00:38:49.571Z,0
2019-01-18T00:39:58.650Z,0
2019-01-18T00:41:07.897Z,0
2019-01-18T00:42:16.958Z,0
2019-01-18T00:43:26.329Z,0
2019-01-18T00:44:35.816Z,0
2019-01-18T00:45:45.343Z,0
2019-01-18T00:46:54.128Z,0
2019-01-18T00:48:03.113Z,0
2019-01-18T00:49:12.624Z,0
2019-01-18T00:50:21.962Z,0
2019-01-18T00:51:31.253Z,0
2019-01-18T00:52:40.582Z,0
2019-01-18T00:53:49.874Z,0
2019-01-18T00:54:58.914Z,0
2019-01-18T00:56:08.688Z,0
2019-01-18T00:57:17.703Z,0
2019-01-18T00:58:27.030Z,0
2019-01-18T00:59:42.885Z,0
2019-01-18T01:00:51.634Z,0
2019-01-18T01:02:01.228Z,0
2019-01-18T01:03:10.967Z,0
2019-01-18T01:04:20.522Z,0
2019-01-18T01:05:29.786Z,0
2019-01-18T01:06:38.822Z,0
2019-01-18T01:07:48.362Z,0
2019-01-18T01:08:57.627Z,0
2019-01-18T01:10:07.144Z,0
2019-01-18T01:11:16.753Z,0
2019-01-18T01:12:25.767Z,0
2019-01-18T01:13:34.827Z,0
2019-01-18T01:14:43.599Z,0
2019-01-18T01:15:53.231Z,0
2019-01-18T01:17:03.008Z,0
2019-01-18T01:18:12.597Z,0
2019-01-18T01:19:22.639Z,0
2019-01-18T01:20:32.379Z,0
2019-01-18T01:21:41.599Z,0
2019-01-18T01:22:51.135Z,0
2019-01-18T01:23:59.936Z,0
2019-01-18T01:25:09.710Z,0
2019-01-18T01:26:19.069Z,0
2019-01-18T01:27:28.321Z,0
2019-01-18T01:28:37.670Z,0
2019-01-18T01:29:49.917Z,0
2019-01-18T01:30:59.164Z,0
2019-01-18T01:32:08.230Z,0
2019-01-18T01:33:17.553Z,0
2019-01-18T01:34:26.844Z,0
2019-01-18T01:35:36.121Z,0
2019-01-18T01:36:44.907Z,0
2019-01-18T01:37:54.430Z,0
2019-01-18T01:39:04.014Z,0
2019-01-18T01:40:14.043Z,0
2019-01-18T01:41:23.648Z,0
2019-01-18T01:42:32.445Z,0
2019-01-18T01:43:41.432Z,0
2019-01-18T01:44:50.457Z,0
2019-01-18T01:45:59.266Z,0
2019-01-18T01:47:08.529Z,0
2019-01-18T01:48:17.793Z,0
2019-01-18T01:49:27.577Z,0
2019-01-18T01:50:36.559Z,0
2019-01-18T01:51:45.631Z,0
2019-01-18T01:52:54.640Z,0
2019-01-18T01:54:04.478Z,0
2019-01-18T01:55:14.010Z,0
2019-01-18T01:56:23.308Z,0
2019-01-18T01:57:32.330Z,0
2019-01-18T01:58:41.879Z,0
2019-01-18T01:59:56.910Z,0
2019-01-18T02:01:06.175Z,0
2019-01-18T02:02:15.756Z,0
2019-01-18T02:03:25.031Z,0
2019-01-18T02:04:34.033Z,0
2019-01-18T02:05:43.817Z,0
2019-01-18T02:06:53.281Z,0
2019-01-18T02:08:02.565Z,0
2019-01-18T02:09:12.035Z,0
2019-01-18T02:10:21.043Z,0
2019-01-18T02:11:30.354Z,0
2019-01-18T02:12:39.573Z,0
2019-01-18T02:13:49.408Z,0
2019-01-18T02:14:58.662Z,0
2019-01-18T02:16:08.475Z,0
2019-01-18T02:17:17.708Z,0
2019-01-18T02:18:27.253Z,0
2019-01-18T02:19:36.237Z,0
2019-01-18T02:20:44.978Z,0
2019-01-18T02:21:54.744Z,0
2019-01-18T02:23:04.210Z,0
2019-01-18T02:24:13.663Z,0
2019-01-18T02:25:23.012Z,0
2019-01-18T02:26:32.009Z,0
2019-01-18T02:27:41.299Z,0
2019-01-18T02:28:50.627Z,0
2019-01-18T02:30:03.904Z,0
2019-01-18T02:31:13.419Z,0
2019-01-18T02:32:22.672Z,0
2019-01-18T02:33:32.234Z,0
2019-01-18T02:34:41.806Z,0
2019-01-18T02:35:51.084Z,0
2019-01-18T02:37:00.338Z,0
2019-01-18T02:38:09.623Z,0
2019-01-18T02:39:19.115Z,0
2019-01-18T02:40:28.616Z,0
2019-01-18T02:41:37.887Z,0
2019-01-18T02:42:47.369Z,0
2019-01-18T02:43:56.970Z,0
2019-01-18T02:45:06.228Z,0
2019-01-18T02:46:15.736Z,0
2019-01-18T02:47:25.041Z,0
2019-01-18T02:48:34.615Z,0
2019-01-18T02:49:43.891Z,0
2019-01-18T02:50:53.437Z,0
2019-01-18T02:52:02.970Z,0
2019-01-18T02:53:12.735Z,0
2019-01-18T02:54:21.718Z,0
2019-01-18T02:55:35.641Z,0
2019-01-18T02:56:44.962Z,0
2019-01-18T02:57:54.503Z,0
2019-01-18T02:59:04.272Z,0
2019-01-18T03:00:13.799Z,0
2019-01-18T03:01:23.065Z,0
2019-01-18T03:02:32.083Z,0
2019-01-18T03:03:41.097Z,0
2019-01-18T03:04:50.671Z,0
2019-01-18T03:05:59.705Z,0
2019-01-18T03:07:09.004Z,0
2019-01-18T03:08:18.282Z,0
2019-01-18T03:09:27.812Z,0
2019-01-18T03:10:37.065Z,0
2019-01-18T03:11:46.324Z,0
2019-01-18T03:12:55.343Z,0
2019-01-18T03:14:04.972Z,0
2019-01-18T03:15:13.991Z,0
2019-01-18T03:16:23.522Z,0
2019-01-18T03:17:32.782Z,0
2019-01-18T03:18:41.774Z,0
2019-01-18T03:19:51.602Z,0
2019-01-18T03:21:00.623Z,0
2019-01-18T03:22:09.641Z,0
2019-01-18T03:23:18.894Z,0
2019-01-18T03:24:28.232Z,0
2019-01-18T03:25:38.255Z,0
2019-01-18T03:26:47.553Z,0
2019-01-18T03:27:57.318Z,0
2019-01-18T03:29:06.367Z,0
2019-01-18T03:30:26.521Z,0
2019-01-18T03:31:36.363Z,0
2019-01-18T03:32:45.960Z,0
2019-01-18T03:33:55.708Z,0
2019-01-18T03:35:05.527Z,0
2019-01-18T03:36:15.396Z,0
2019-01-18T03:37:24.959Z,0
2019-01-18T03:38:34.321Z,0
2019-01-18T03:39:43.035Z,0
2019-01-18T03:40:52.296Z,0
2019-01-18T03:42:01.564Z,0
2019-01-18T03:43:11.040Z,0
2019-01-18T03:44:19.856Z,0
2019-01-18T03:45:29.251Z,0
2019-01-18T03:46:39.017Z,0
2019-01-18T03:47:48.321Z,0
2019-01-18T03:48:57.636Z,0
2019-01-18T03:50:06.920Z,0
2019-01-18T03:51:16.787Z,0
2019-01-18T03:52:26.329Z,0
2019-01-18T03:53:35.860Z,0
2019-01-18T03:54:45.122Z,0
2019-01-18T03:55:54.653Z,0
2019-01-18T03:57:04.755Z,0
2019-01-18T03:58:14.294Z,0
2019-01-18T03:59:24.470Z,0
2019-01-18T04:00:34.394Z,0
2019-01-18T04:01:43.437Z,0
2019-01-18T04:02:53.051Z,0
2019-01-18T04:04:02.347Z,0
2019-01-18T04:05:11.820Z,0
2019-01-18T04:06:21.340Z,0
2019-01-18T04:07:30.353Z,0
2019-01-18T04:08:40.206Z,0
2019-01-18T04:09:49.695Z,0
2019-01-18T04:10:58.750Z,0
2019-01-18T04:12:08.080Z,0
2019-01-18T04:13:17.403Z,0
2019-01-18T04:14:26.416Z,0
2019-01-18T04:15:35.998Z,0
2019-01-18T04:16:45.274Z,0
2019-01-18T04:17:54.768Z,0
2019-01-18T04:19:03.534Z,0
2019-01-18T04:20:13.048Z,0
2019-01-18T04:21:22.329Z,0
2019-01-18T04:22:31.870Z,0
2019-01-18T04:23:41.119Z,0
2019-01-18T04:24:50.160Z,0
2019-01-18T04:25:59.190Z,0
2019-01-18T04:27:08.486Z,0
2019-01-18T04:28:18.518Z,0
2019-01-18T04:29:27.868Z,0
2019-01-18T04:30:40.664Z,0
2019-01-18T04:31:50.414Z,0
2019-01-18T04:33:00.173Z,0
2019-01-18T04:34:09.648Z,0
2019-01-18T04:35:18.653Z,0
2019-01-18T04:36:28.444Z,0
2019-01-18T04:37:37.973Z,0
2019-01-18T04:38:47.478Z,0
2019-01-18T04:39:57.518Z,0
2019-01-18T04:41:06.791Z,0
2019-01-18T04:42:15.838Z,0
2019-01-18T04:43:25.350Z,0
2019-01-18T04:44:34.873Z,0
2019-01-18T04:45:44.134Z,0
2019-01-18T04:46:53.948Z,0
2019-01-18T04:48:02.930Z,0
2019-01-18T04:49:12.449Z,0
2019-01-18T04:50:21.938Z,0
2019-01-18T04:51:31.485Z,0
2019-01-18T04:52:41.019Z,0
2019-01-18T04:53:50.757Z,0
2019-01-18T04:55:00.012Z,0
2019-01-18T04:56:09.768Z,0
2019-01-18T04:57:18.766Z,0
2019-01-18T04:58:29.086Z,0
2019-01-18T04:59:38.317Z,0
2019-01-18T05:00:49.001Z,0
2019-01-18T05:01:58.307Z,0
2019-01-18T05:03:08.098Z,0
2019-01-18T05:04:17.586Z,0
2019-01-18T05:05:26.915Z,0
2019-01-18T05:06:35.924Z,0
2019-01-18T05:07:44.925Z,0
2019-01-18T05:08:54.235Z,0
2019-01-18T05:10:03.771Z,0
2019-01-18T05:11:13.264Z,0
2019-01-18T05:12:22.533Z,0
2019-01-18T05:13:31.735Z,0
2019-01-18T05:14:40.974Z,0
2019-01-18T05:15:50.498Z,0
2019-01-18T05:16:59.212Z,0
2019-01-18T05:18:08.471Z,0
2019-01-18T05:19:17.757Z,0
2019-01-18T05:20:27.033Z,0
2019-01-18T05:21:36.523Z,0
2019-01-18T05:22:45.766Z,0
2019-01-18T05:23:55.047Z,0
2019-01-18T05:25:04.196Z,0
2019-01-18T05:26:14.027Z,0
2019-01-18T05:27:23.040Z,0
2019-01-18T05:28:32.129Z,0
2019-01-18T05:29:41.644Z,0
2019-01-18T05:30:54.830Z,0
2019-01-18T05:32:03.906Z,0
2019-01-18T05:33:13.480Z,0
2019-01-18T05:34:22.524Z,0
2019-01-18T05:35:31.256Z,0
2019-01-18T05:36:40.815Z,0
2019-01-18T05:37:50.067Z,0
2019-01-18T05:38:59.377Z,0
2019-01-18T05:40:09.119Z,0
2019-01-18T05:41:18.859Z,0
2019-01-18T05:42:28.135Z,0
2019-01-18T05:43:37.219Z,0
2019-01-18T05:44:47.940Z,0
2019-01-18T05:45:57.951Z,0
2019-01-18T05:47:07.447Z,0
2019-01-18T05:48:17.019Z,0
2019-01-18T05:49:26.787Z,0
2019-01-18T05:50:35.525Z,0
2019-01-18T05:51:44.806Z,0
2019-01-18T05:52:54.126Z,0
2019-01-18T05:54:03.664Z,0
2019-01-18T05:55:12.905Z,0
2019-01-18T05:56:22.185Z,0
2019-01-18T05:57:31.217Z,0
2019-01-18T05:58:40.510Z,0
2019-01-18T05:59:49.574Z,0
2019-01-18T06:01:02.518Z,0
2019-01-18T06:02:12.016Z,0
2019-01-18T06:03:21.319Z,0
2019-01-18T06:04:30.796Z,0
2019-01-18T06:05:40.565Z,0
2019-01-18T06:06:50.355Z,0
2019-01-18T06:08:00.182Z,0
2019-01-18T06:09:10.224Z,0
2019-01-18T06:10:20.577Z,0
2019-01-18T06:11:29.292Z,0
2019-01-18T06:12:38.813Z,0
2019-01-18T06:13:47.828Z,0
2019-01-18T06:14:57.086Z,0
2019-01-18T06:16:06.588Z,0
2019-01-18T06:17:16.351Z,0
2019-01-18T06:18:25.135Z,0
2019-01-18T06:19:33.854Z,0
2019-01-18T06:20:42.907Z,0
2019-01-18T06:21:52.451Z,0
2019-01-18T06:23:01.706Z,0
2019-01-18T06:24:10.736Z,0
2019-01-18T06:25:20.888Z,0
2019-01-18T06:26:30.155Z,0
2019-01-18T06:27:39.232Z,0
2019-01-18T06:28:48.956Z,0
2019-01-18T06:29:58.471Z,0
2019-01-18T06:31:08.629Z,0
2019-01-18T06:32:17.911Z,0
2019-01-18T06:33:27.168Z,0
2019-01-18T06:34:37.172Z,0
2019-01-18T06:35:46.446Z,0
2019-01-18T06:36:55.445Z,0
2019-01-18T06:38:05.182Z,0
2019-01-18T06:39:14.373Z,0
2019-01-18T06:40:23.626Z,0
2019-01-18T06:41:33.150Z,0
2019-01-18T06:42:42.174Z,0
2019-01-18T06:43:52.847Z,0
2019-01-18T06:45:02.798Z,0
2019-01-18T06:46:12.533Z,0
2019-01-18T06:47:21.798Z,0
2019-01-18T06:48:31.289Z,0
2019-01-18T06:49:40.513Z,0
2019-01-18T06:50:49.731Z,0
2019-01-18T06:51:58.989Z,0
2019-01-18T06:53:08.270Z,0
2019-01-18T06:54:17.226Z,0
2019-01-18T06:55:26.699Z,0
2019-01-18T06:56:37.112Z,0
2019-01-18T06:57:46.123Z,0
2019-01-18T06:58:55.390Z,0
2019-01-18T07:00:04.789Z,0
2019-01-18T07:01:15.344Z,0
2019-01-18T07:02:24.069Z,0
2019-01-18T07:03:33.030Z,0
2019-01-18T07:04:47.891Z,0
2019-01-18T07:05:57.381Z,0
2019-01-18T07:07:06.883Z,0
2019-01-18T07:08:16.664Z,0
2019-01-18T07:09:26.161Z,0
2019-01-18T07:10:35.626Z,0
2019-01-18T07:11:44.379Z,0
2019-01-18T07:12:53.868Z,0
2019-01-18T07:14:03.386Z,0
2019-01-18T07:15:12.467Z,0
2019-01-18T07:16:21.922Z,0
2019-01-18T07:17:30.953Z,0
2019-01-18T07:18:39.941Z,0
2019-01-18T07:19:49.460Z,0
2019-01-18T07:20:58.666Z,0
2019-01-18T07:22:07.414Z,0
2019-01-18T07:23:16.411Z,0
2019-01-18T07:24:26.197Z,0
2019-01-18T07:25:35.429Z,0
2019-01-18T07:26:44.973Z,0
2019-01-18T07:27:54.250Z,0
2019-01-18T07:29:03.778Z,0
2019-01-18T07:30:13.321Z,0
2019-01-18T07:31:22.790Z,0
2019-01-18T07:32:32.406Z,0
2019-01-18T07:33:41.716Z,0
2019-01-18T07:34:50.987Z,0
2019-01-18T07:36:00.519Z,0
2019-01-18T07:37:09.535Z,0
2019-01-18T07:38:18.559Z,0
2019-01-18T07:39:29.803Z,0
2019-01-18T07:40:39.012Z,0
2019-01-18T07:41:48.578Z,0
2019-01-18T07:42:57.604Z,0
2019-01-18T07:44:06.877Z,0
2019-01-18T07:45:16.201Z,0
2019-01-18T07:46:26.396Z,0
2019-01-18T07:47:35.722Z,0
2019-01-18T07:48:44.999Z,4
2019-01-18T07:49:54.484Z,4
2019-01-18T07:51:03.527Z,4
2019-01-18T07:52:12.839Z,4
2019-01-18T07:53:23.164Z,4
2019-01-18T07:54:32.703Z,4
2019-01-18T07:55:42.034Z,4
2019-01-18T07:56:52.080Z,4
2019-01-18T07:58:01.097Z,4
2019-01-18T07:59:10.664Z,0
2019-01-18T08:00:20.224Z,0
2019-01-18T08:01:29.000Z,0
2019-01-18T08:02:38.500Z,0
2019-01-18T08:03:47.750Z,0
2019-01-18T08:04:57.279Z,0
2019-01-18T08:06:06.606Z,0
2019-01-18T08:07:16.106Z,0
2019-01-18T08:08:25.089Z,4
2019-01-18T08:09:34.636Z,4
2019-01-18T08:10:43.953Z,4
2019-01-18T08:11:53.722Z,4
2019-01-18T08:13:03.555Z,4
2019-01-18T08:14:13.119Z,4
2019-01-18T08:15:22.161Z,4
2019-01-18T08:16:31.379Z,4
2019-01-18T08:17:40.918Z,4
2019-01-18T08:18:49.878Z,4
2019-01-18T08:19:58.873Z,4
2019-01-18T08:21:08.141Z,4
2019-01-18T08:22:16.918Z,4
2019-01-18T08:23:26.699Z,4
2019-01-18T08:24:36.033Z,8
2019-01-18T08:25:44.794Z,4
2019-01-18T08:26:54.059Z,4
2019-01-18T08:28:03.627Z,4
2019-01-18T08:29:12.692Z,4
2019-01-18T08:30:21.766Z,4
2019-01-18T08:31:35.489Z,8
2019-01-18T08:32:44.821Z,8
2019-01-18T08:33:54.357Z,4
2019-01-18T08:35:03.436Z,4
2019-01-18T08:36:12.230Z,4
2019-01-18T08:37:21.481Z,8
2019-01-18T08:38:30.940Z,8
2019-01-18T08:39:40.440Z,4
2019-01-18T08:40:49.733Z,8
2019-01-18T08:41:58.997Z,8
2019-01-18T08:43:08.767Z,8
2019-01-18T08:44:17.773Z,8
2019-01-18T08:45:27.017Z,8
2019-01-18T08:46:37.269Z,8
2019-01-18T08:47:46.829Z,8
2019-01-18T08:48:56.096Z,8
2019-01-18T08:50:05.217Z,8
2019-01-18T08:51:14.706Z,8
2019-01-18T08:52:23.737Z,4
2019-01-18T08:53:33.050Z,4
2019-01-18T08:54:42.782Z,4
2019-01-18T08:55:51.832Z,8
2019-01-18T08:57:00.835Z,8
2019-01-18T08:58:10.343Z,12
2019-01-18T08:59:19.647Z,8
2019-01-18T09:00:29.384Z,12
2019-01-18T09:01:42.868Z,12
2019-01-18T09:02:52.350Z,12
2019-01-18T09:04:02.126Z,12
2019-01-18T09:05:11.965Z,12
2019-01-18T09:06:21.226Z,12
2019-01-18T09:07:30.790Z,12
2019-01-18T09:08:40.829Z,12
2019-01-18T09:09:50.608Z,12
2019-01-18T09:10:59.894Z,16
2019-01-18T09:12:09.906Z,16
2019-01-18T09:13:20.897Z,12
2019-01-18T09:14:30.775Z,16
2019-01-18T09:15:40.403Z,12
2019-01-18T09:16:49.910Z,16
2019-01-18T09:17:59.357Z,16
2019-01-18T09:19:08.915Z,16
2019-01-18T09:20:18.142Z,16
2019-01-18T09:21:27.915Z,16
2019-01-18T09:22:37.957Z,20
2019-01-18T09:23:47.472Z,16
2019-01-18T09:24:57.015Z,20
2019-01-18T09:26:05.814Z,20
2019-01-18T09:27:14.846Z,20
2019-01-18T09:28:24.356Z,20
2019-01-18T09:29:33.857Z,20
2019-01-18T09:30:43.402Z,20
2019-01-18T09:31:52.414Z,20
2019-01-18T09:33:01.918Z,20
2019-01-18T09:34:11.241Z,24
2019-01-18T09:35:20.532Z,20
2019-01-18T09:36:29.788Z,24
2019-01-18T09:37:38.558Z,20
2019-01-18T09:38:47.924Z,24
2019-01-18T09:39:57.456Z,24
2019-01-18T09:41:07.009Z,24
2019-01-18T09:42:16.545Z,20
2019-01-18T09:43:25.545Z,20
2019-01-18T09:44:34.788Z,24
2019-01-18T09:45:44.050Z,24
2019-01-18T09:46:53.626Z,24
2019-01-18T09:48:02.945Z,28
2019-01-18T09:49:12.435Z,28
2019-01-18T09:50:21.452Z,24
2019-01-18T09:51:30.452Z,24
2019-01-18T09:52:39.460Z,24
2019-01-18T09:53:48.499Z,24
2019-01-18T09:54:57.835Z,20
2019-01-18T09:56:07.105Z,20
2019-01-18T09:57:16.691Z,24
2019-01-18T09:58:25.959Z,32
2019-01-18T09:59:35.294Z,40
2019-01-18T10:00:44.348Z,40
2019-01-18T10:01:56.482Z,36
2019-01-18T10:03:06.254Z,24
2019-01-18T10:04:15.820Z,20
2019-01-18T10:05:24.665Z,20
2019-01-18T10:06:33.943Z,24
2019-01-18T10:07:42.949Z,24
2019-01-18T10:08:52.439Z,28
2019-01-18T10:10:01.506Z,32
2019-01-18T10:11:10.801Z,36
2019-01-18T10:12:20.349Z,36
2019-01-18T10:13:29.629Z,36
2019-01-18T10:14:39.011Z,32
2019-01-18T10:15:48.009Z,36
2019-01-18T10:16:57.060Z,40
2019-01-18T10:18:08.030Z,40
2019-01-18T10:19:17.829Z,36
2019-01-18T10:20:27.080Z,36
2019-01-18T10:21:36.852Z,36
2019-01-18T10:22:45.882Z,36
2019-01-18T10:23:55.419Z,36
2019-01-18T10:25:04.987Z,32
2019-01-18T10:26:14.255Z,40
2019-01-18T10:27:28.763Z,40
2019-01-18T10:28:38.070Z,36
2019-01-18T10:29:47.338Z,36
2019-01-18T10:30:56.590Z,36
2019-01-18T10:32:05.623Z,40
2019-01-18T10:33:15.172Z,32
2019-01-18T10:34:24.186Z,28
2019-01-18T10:35:34.002Z,24
2019-01-18T10:36:43.045Z,24
2019-01-18T10:37:52.362Z,24
2019-01-18T10:39:01.661Z,28
2019-01-18T10:40:11.655Z,28
2019-01-18T10:41:21.216Z,16
2019-01-18T10:42:29.977Z,28
2019-01-18T10:43:39.300Z,32
2019-01-18T10:44:49.102Z,16
2019-01-18T10:45:58.645Z,20
2019-01-18T10:47:08.741Z,16
2019-01-18T10:48:18.317Z,16
2019-01-18T10:49:28.013Z,12
2019-01-18T10:50:37.271Z,16
2019-01-18T10:51:46.571Z,16
2019-01-18T10:52:56.092Z,20
2019-01-18T10:54:05.122Z,28
2019-01-18T10:55:13.884Z,28
2019-01-18T10:56:23.138Z,28
2019-01-18T10:57:32.158Z,16
2019-01-18T10:58:42.952Z,16
2019-01-18T10:59:52.516Z,16
2019-01-18T11:01:01.281Z,16
2019-01-18T11:02:13.971Z,20
2019-01-18T11:03:23.219Z,24
2019-01-18T11:04:32.519Z,28
2019-01-18T11:05:42.292Z,20
2019-01-18T11:06:52.049Z,16
2019-01-18T11:08:01.564Z,16
2019-01-18T11:09:10.575Z,16
2019-01-18T11:10:19.595Z,12
2019-01-18T11:11:28.646Z,16
2019-01-18T11:12:38.173Z,12
2019-01-18T11:13:47.184Z,16
2019-01-18T11:14:56.203Z,16
2019-01-18T11:16:05.722Z,16
2019-01-18T11:17:15.034Z,16
2019-01-18T11:18:24.052Z,16
2019-01-18T11:19:33.375Z,24
2019-01-18T11:20:43.204Z,12
2019-01-18T11:21:52.540Z,12
2019-01-18T11:23:01.656Z,8
2019-01-18T11:24:10.442Z,8
2019-01-18T11:25:21.462Z,8
2019-01-18T11:26:30.726Z,12
2019-01-18T11:27:40.014Z,16
2019-01-18T11:28:49.603Z,20
2019-01-18T11:29:59.114Z,20
2019-01-18T11:31:08.342Z,20
2019-01-18T11:32:20.623Z,24
2019-01-18T11:33:29.886Z,24
2019-01-18T11:34:39.117Z,24
2019-01-18T11:35:48.148Z,28
2019-01-18T11:37:01.857Z,28
2019-01-18T11:38:11.175Z,24
2019-01-18T11:39:20.164Z,24
2019-01-18T11:40:29.621Z,24
2019-01-18T11:41:39.663Z,20
2019-01-18T11:42:48.962Z,24
2019-01-18T11:43:58.450Z,20
2019-01-18T11:45:07.984Z,24
2019-01-18T11:46:17.489Z,20
2019-01-18T11:47:28.347Z,20
2019-01-18T11:48:37.700Z,12
2019-01-18T11:49:47.222Z,12
2019-01-18T11:50:56.718Z,16
2019-01-18T11:52:06.456Z,16
2019-01-18T11:53:16.000Z,12
2019-01-18T11:54:25.493Z,12
2019-01-18T11:55:34.459Z,16
2019-01-18T11:56:43.969Z,16
2019-01-18T11:57:53.778Z,12
2019-01-18T11:59:03.093Z,16
2019-01-18T12:00:12.123Z,12
2019-01-18T12:01:21.200Z,20
2019-01-18T12:02:30.460Z,12
2019-01-18T12:03:39.567Z,12
2019-01-18T12:04:48.590Z,12
2019-01-18T12:05:57.876Z,16
2019-01-18T12:07:07.189Z,16
2019-01-18T12:08:15.922Z,16
2019-01-18T12:09:25.163Z,20
2019-01-18T12:10:34.693Z,20
2019-01-18T12:11:43.971Z,24
2019-01-18T12:12:53.253Z,20
2019-01-18T12:14:02.286Z,20
2019-01-18T12:15:11.330Z,16
2019-01-18T12:16:20.863Z,20
2019-01-18T12:17:30.116Z,12
2019-01-18T12:18:39.707Z,12
2019-01-18T12:19:49.282Z,12
2019-01-18T12:20:58.862Z,12
2019-01-18T12:22:07.928Z,8
2019-01-18T12:23:17.277Z,12
2019-01-18T12:24:26.594Z,8
2019-01-18T12:25:35.609Z,8
2019-01-18T12:26:45.435Z,8
2019-01-18T12:27:54.200Z,8
2019-01-18T12:29:03.775Z,20
2019-01-18T12:30:12.543Z,24
2019-01-18T12:31:22.315Z,8
2019-01-18T12:32:36.019Z,8
2019-01-18T12:33:45.601Z,8
2019-01-18T12:34:55.439Z,12
2019-01-18T12:36:04.960Z,12
2019-01-18T12:37:14.550Z,8
2019-01-18T12:38:23.815Z,12
2019-01-18T12:39:33.590Z,24
2019-01-18T12:40:43.400Z,20
2019-01-18T12:41:52.998Z,8
2019-01-18T12:43:02.502Z,8
2019-01-18T12:44:11.580Z,8
2019-01-18T12:45:21.036Z,8
2019-01-18T12:46:29.845Z,8
2019-01-18T12:47:39.186Z,8
2019-01-18T12:48:48.480Z,8
2019-01-18T12:49:58.314Z,8
2019-01-18T12:51:07.839Z,12
2019-01-18T12:52:16.868Z,24
2019-01-18T12:53:25.916Z,24
2019-01-18T12:54:36.678Z,28
2019-01-18T12:55:46.267Z,24
2019-01-18T12:56:55.305Z,28
2019-01-18T12:58:04.957Z,28
2019-01-18T12:59:14.237Z,28
2019-01-18T13:00:23.251Z,24
2019-01-18T13:01:33.104Z,28
2019-01-18T13:02:42.671Z,24
2019-01-18T13:03:51.726Z,24
2019-01-18T13:05:01.556Z,24
2019-01-18T13:06:11.164Z,24
2019-01-18T13:07:20.279Z,20
2019-01-18T13:08:29.381Z,16
2019-01-18T13:09:38.415Z,16
2019-01-18T13:10:48.445Z,12
2019-01-18T13:11:58.299Z,12
2019-01-18T13:13:08.139Z,12
2019-01-18T13:14:17.452Z,12
2019-01-18T13:15:26.463Z,12
2019-01-18T13:16:35.757Z,12
2019-01-18T13:17:45.090Z,12
2019-01-18T13:18:54.634Z,12
2019-01-18T13:20:03.967Z,8
2019-01-18T13:21:13.269Z,8
2019-01-18T13:22:26.040Z,12
2019-01-18T13:23:35.918Z,12
2019-01-18T13:24:45.921Z,8
2019-01-18T13:25:55.524Z,12
2019-01-18T13:27:05.070Z,12
2019-01-18T13:28:14.367Z,12
2019-01-18T13:29:23.791Z,12
2019-01-18T13:30:33.090Z,12
2019-01-18T13:31:41.859Z,8
2019-01-18T13:32:51.200Z,8
2019-01-18T13:34:03.085Z,8
2019-01-18T13:35:12.797Z,8
2019-01-18T13:36:21.873Z,8
2019-01-18T13:37:31.387Z,12
2019-01-18T13:38:40.719Z,12
2019-01-18T13:39:50.004Z,8
2019-01-18T13:40:59.057Z,8
2019-01-18T13:42:08.641Z,8
2019-01-18T13:43:18.180Z,8
2019-01-18T13:44:28.012Z,8
2019-01-18T13:45:37.560Z,8
2019-01-18T13:46:46.616Z,8
2019-01-18T13:47:55.635Z,4
2019-01-18T13:49:05.201Z,4
2019-01-18T13:50:14.581Z,8
2019-01-18T13:51:23.677Z,8
2019-01-18T13:52:33.219Z,8
2019-01-18T13:53:43.038Z,8
2019-01-18T13:54:52.328Z,8
2019-01-18T13:56:01.593Z,8
2019-01-18T13:57:14.686Z,4
2019-01-18T13:58:24.171Z,4
2019-01-18T13:59:33.496Z,4
2019-01-18T14:00:42.828Z,4
2019-01-18T14:01:51.860Z,4
2019-01-18T14:03:00.660Z,4
2019-01-18T14:04:10.552Z,4
2019-01-18T14:05:19.851Z,4
2019-01-18T14:06:29.093Z,4
2019-01-18T14:07:38.402Z,4
2019-01-18T14:08:48.202Z,4
2019-01-18T14:09:57.771Z,4
2019-01-18T14:11:07.553Z,4
2019-01-18T14:12:17.108Z,4
2019-01-18T14:13:26.392Z,4
2019-01-18T14:14:35.962Z,4
2019-01-18T14:15:44.774Z,4
2019-01-18T14:16:54.811Z,4
2019-01-18T14:18:04.855Z,4
2019-01-18T14:19:14.385Z,4
2019-01-18T14:20:27.395Z,4
2019-01-18T14:21:36.718Z,4
2019-01-18T14:22:45.485Z,4
2019-01-18T14:23:55.279Z,4
2019-01-18T14:25:04.847Z,4
2019-01-18T14:26:14.429Z,4
2019-01-18T14:27:24.274Z,4
2019-01-18T14:28:33.509Z,4
2019-01-18T14:29:43.094Z,4
2019-01-18T14:30:52.136Z,4
2019-01-18T14:32:01.193Z,4
2019-01-18T14:33:10.242Z,4
2019-01-18T14:34:19.305Z,4
2019-01-18T14:35:28.622Z,4
2019-01-18T14:36:37.891Z,4
2019-01-18T14:37:47.410Z,4
2019-01-18T14:38:56.895Z,4
2019-01-18T14:40:06.394Z,4
2019-01-18T14:41:20.581Z,4
2019-01-18T14:42:30.110Z,4
2019-01-18T14:43:39.355Z,4
2019-01-18T14:44:49.199Z,4
2019-01-18T14:45:58.726Z,4
2019-01-18T14:47:08.192Z,4
2019-01-18T14:48:16.935Z,8
2019-01-18T14:49:26.184Z,4
2019-01-18T14:50:39.687Z,4
2019-01-18T14:51:51.130Z,4
2019-01-18T14:53:00.470Z,4
2019-01-18T14:54:09.782Z,4
2019-01-18T14:55:19.284Z,4
2019-01-18T14:56:28.284Z,4
2019-01-18T14:57:37.299Z,4
2019-01-18T14:58:46.814Z,4
2019-01-18T14:59:56.032Z,4
2019-01-18T15:01:05.524Z,4
2019-01-18T15:02:15.318Z,4
2019-01-18T15:03:24.578Z,4
2019-01-18T15:04:33.642Z,4
2019-01-18T15:05:42.452Z,4
2019-01-18T15:06:51.977Z,4
2019-01-18T15:08:01.539Z,4
2019-01-18T15:09:10.603Z,4
2019-01-18T15:10:19.618Z,4
2019-01-18T15:11:28.911Z,4
2019-01-18T15:12:38.403Z,4
2019-01-18T15:13:47.732Z,4
2019-01-18T15:14:56.750Z,4
2019-01-18T15:16:06.560Z,4
2019-01-18T15:17:15.786Z,0
2019-01-18T15:18:25.049Z,0
2019-01-18T15:19:34.841Z,0
2019-01-18T15:20:44.111Z,0
2019-01-18T15:21:53.623Z,0
2019-01-18T15:23:02.713Z,0
2019-01-18T15:24:11.727Z,0
2019-01-18T15:25:21.359Z,0
2019-01-18T15:26:30.398Z,0
2019-01-18T15:27:39.908Z,4
2019-01-18T15:28:49.613Z,4
2019-01-18T15:29:58.713Z,4
2019-01-18T15:31:08.224Z,4
2019-01-18T15:32:17.484Z,4
2019-01-18T15:33:27.290Z,4
2019-01-18T15:34:36.650Z,4
2019-01-18T15:35:46.284Z,0
2019-01-18T15:36:55.441Z,0
2019-01-18T15:38:04.190Z,0
2019-01-18T15:39:13.748Z,0
2019-01-18T15:40:23.308Z,0
2019-01-18T15:41:33.095Z,0
2019-01-18T15:42:42.619Z,0
2019-01-18T15:43:51.898Z,0
2019-01-18T15:45:01.069Z,0
2019-01-18T15:46:10.102Z,0
2019-01-18T15:47:19.922Z,0
2019-01-18T15:48:29.310Z,0
2019-01-18T15:49:38.159Z,0
2019-01-18T15:50:47.723Z,0
2019-01-18T15:51:56.847Z,0
2019-01-18T15:53:06.191Z,0
2019-01-18T15:54:15.798Z,0
2019-01-18T15:55:25.322Z,0
2019-01-18T15:56:34.167Z,0
2019-01-18T15:57:43.845Z,0
2019-01-18T15:58:53.178Z,0
2019-01-18T16:00:02.735Z,0
2019-01-18T16:01:12.292Z,0
2019-01-18T16:02:21.809Z,0
2019-01-18T16:03:31.053Z,0
2019-01-18T16:04:40.050Z,0
2019-01-18T16:05:49.637Z,0
2019-01-18T16:06:59.296Z,0
2019-01-18T16:08:08.590Z,0
2019-01-18T16:09:17.369Z,0
2019-01-18T16:10:27.662Z,0
2019-01-18T16:11:37.044Z,0
2019-01-18T16:12:46.294Z,0
2019-01-18T16:13:56.131Z,0
2019-01-18T16:15:05.178Z,0
2019-01-18T16:16:14.453Z,0
2019-01-18T16:17:24.018Z,0
2019-01-18T16:18:33.836Z,0
2019-01-18T16:19:43.698Z,0
2019-01-18T16:20:53.064Z,0
2019-01-18T16:22:02.683Z,0
2019-01-18T16:23:12.004Z,0
2019-01-18T16:24:21.471Z,0
2019-01-18T16:25:30.577Z,0
2019-01-18T16:26:40.119Z,0
2019-01-18T16:27:49.790Z,0
2019-01-18T16:28:59.056Z,0
2019-01-18T16:30:08.384Z,0
2019-01-18T16:31:18.264Z,0
2019-01-18T16:32:27.568Z,0
2019-01-18T16:33:36.870Z,0
2019-01-18T16:34:45.702Z,0
2019-01-18T16:35:55.034Z,0
2019-01-18T16:37:04.323Z,0
2019-01-18T16:38:14.913Z,0
2019-01-18T16:39:23.999Z,0
2019-01-18T16:40:33.291Z,0
2019-01-18T16:41:42.683Z,0
2019-01-18T16:42:52.006Z,0
2019-01-18T16:44:01.117Z,0
2019-01-18T16:45:10.187Z,0
2019-01-18T16:46:19.727Z,0
2019-01-18T16:47:29.408Z,0
2019-01-18T16:48:38.402Z,0
2019-01-18T16:49:48.147Z,0
2019-01-18T16:50:57.901Z,0
2019-01-18T16:52:07.202Z,0
2019-01-18T16:53:16.242Z,0
2019-01-18T16:54:25.309Z,0
2019-01-18T16:55:34.569Z,0
2019-01-18T16:56:44.460Z,0
2019-01-18T16:57:53.499Z,0
2019-01-18T16:59:02.831Z,0